WetterOnline ( https://www.wetteronline.de )

Wetter aktuell Burgsalach

Aktuelles Wetter: Roth (386m)

6-stündlich | Neueste Meldungen
Ortszeit Temperatur Wetter
So, 25.10. 13:00 13.2° C leicht bewölkt
So, 25.10. 7:00 5.2° C wolkenlos
So, 25.10. 2:00 5.9° C wolkenlos
Sa, 24.10. 20:00 10.0° C wolkenlos
Sa, 24.10. 14:00 15.0° C leicht bewölkt
Sa, 24.10. 8:00 11.7° C bedeckt
Sa, 24.10. 2:00 12.8° C bewölkt
Fr, 23.10. 20:00 13.7° C Regen
Ortszeit Temperatur Wetter
So, 25.10. 18:30 10.1° C bedeckt
So, 25.10. 18:20 10.1° C bedeckt
So, 25.10. 18:10 10.2° C bewölkt
So, 25.10. 18:00 10.3° C wolkig
So, 25.10. 17:50 10.3° C wolkig
So, 25.10. 17:40 10.6° C wolkig
So, 25.10. 17:30 11.1° C bewölkt
So, 25.10. 17:00 12.0° C wolkig
So, 25.10. 15:00 14.4° C bedeckt
Ortszeit Relative Feuchte Sichtweite
So, 25.10. 13:00 71% 55 km
So, 25.10. 7:00 100% 10 km
So, 25.10. 2:00 99% 13 km
Sa, 24.10. 20:00 93% 45 km
Sa, 24.10. 14:00 67% >70 km
Sa, 24.10. 8:00 99% 5.0 km
Sa, 24.10. 2:00 97% 12 km
Fr, 23.10. 20:00 96% 26 km
Ortszeit Relative Feuchte Sichtweite
So, 25.10. 18:30 90% 30 km
So, 25.10. 18:20 90% -
So, 25.10. 18:10 91% -
So, 25.10. 18:00 90% 30 km
So, 25.10. 17:50 90% -
So, 25.10. 17:40 89% -
So, 25.10. 17:30 86% 45 km
So, 25.10. 17:00 81% 50 km
So, 25.10. 15:00 63% 65 km
Ortszeit Niederschlagsmenge Niederschlagsart
So, 25.10. 13:00 0.0 l/m2 in 6 Std. -
So, 25.10. 7:00 0.0 l/m2 in 12 Std. -
So, 25.10. 2:00 0.0 l/m2 in 6 Std. -
Sa, 24.10. 20:00 0.1 l/m2 in 12 Std. -
Sa, 24.10. 14:00 0.1 l/m2 in 6 Std. Regen
Sa, 24.10. 8:00 4 l/m2 in 12 Std. Regen
Sa, 24.10. 2:00 3 l/m2 in 6 Std. Regen
Fr, 23.10. 20:00 2 l/m2 in 12 Std. Regen
Ortszeit Niederschlagsmenge Niederschlagsart
So, 25.10. 18:30 0.0 l/m2 in 1 Std. -
So, 25.10. 18:20 keine Meldung -
So, 25.10. 18:10 keine Meldung -
So, 25.10. 18:00 0.0 l/m2 in 1 Std. -
So, 25.10. 17:50 keine Meldung -
So, 25.10. 17:40 keine Meldung -
So, 25.10. 17:30 0.0 l/m2 in 1 Std. -
So, 25.10. 17:00 0.0 l/m2 in 1 Std. -
So, 25.10. 15:00 keine Meldung -
Ortszeit Stärke Spitze Richtung
km/h Bft. km/h Grad Sektor
So, 25.10. 13:00 13 3 26 170° S
So, 25.10. 7:00 4 1 14 150° SO
So, 25.10. 2:00 7 2 11 140° SO
Sa, 24.10. 20:00 6 1 33 180° S
Sa, 24.10. 14:00 11 2 28 250° W
Sa, 24.10. 8:00 4 1 14 270° W
Sa, 24.10. 2:00 9 2 17 220° SW
Fr, 23.10. 20:00 7 2 22 200° S
Ortszeit Stärke Spitze Richtung
km/h Bft. km/h Grad Sektor
So, 25.10. 18:30 11 2 14 150° SO
So, 25.10. 18:20 11 2 - 150° SO
So, 25.10. 18:10 9 2 - 140° SO
So, 25.10. 18:00 7 2 14 140° SO
So, 25.10. 17:50 7 2 - 140° SO
So, 25.10. 17:40 7 2 - 130° SO
So, 25.10. 17:30 7 2 14 110° O
So, 25.10. 17:00 7 2 19 150° SO
So, 25.10. 15:00 14 3 25 150° SO
Ortszeit Untergrenze Bedeckung Gattung
total tief tief mittel hoch
So, 25.10. 13:00 7800 m 6/8 0/8 - - -
So, 25.10. 7:00 - 0/8 0/8 - - -
So, 25.10. 2:00 - 0/8 0/8 - - -
Sa, 24.10. 20:00 - 0/8 0/8 - - -
Sa, 24.10. 14:00 810 m 3/8 5/8 - - -
Sa, 24.10. 8:00 1470 m 8/8 8/8 - - -
Sa, 24.10. 2:00 1440 m 8/8 7/8 - - -
Fr, 23.10. 20:00 1440 m 8/8 8/8 - - -
Ortszeit Bedeckungsgrad in Achtel und Wolkenuntergrenze
So, 25.10. 18:30 5(4500m) 8(6300m) 8(7500m)
So, 25.10. 18:20 5(4500m) 8(6300m) 8(7500m)
So, 25.10. 18:10 1(4500m) 6(6600m) 8(7500m)
So, 25.10. 18:00 2(7200m) 8(7800m) 8(7800m)
So, 25.10. 17:50 2(7200m) 8(7800m)
So, 25.10. 17:40 2(5100m) 8(7800m) 8(8400m)
So, 25.10. 17:30 6(5100m) 8(8100m)
So, 25.10. 17:00 2(5100m) 7(8100m)
So, 25.10. 15:00 8(5400m)
Ortszeit Luftdruck NN (hPa) Tendenz (hPa in 3 Std.)
So, 25.10. 13:00 1010 - 1,3
So, 25.10. 7:00 1014 - 1,0
So, 25.10. 2:00 1016 - 1,6
Sa, 24.10. 20:00 1018 + 0,1
Sa, 24.10. 14:00 1018 - 0,3
Sa, 24.10. 8:00 1017 + 1,5
Sa, 24.10. 2:00 1015 + 0,3
Fr, 23.10. 20:00 1013 + 0,2
Ortszeit Luftdruck NN (hPa) Tendenz (hPa in 3 Std.)
So, 25.10. 18:30 1008 - 0,6
So, 25.10. 18:20 1008 keine Meldung
So, 25.10. 18:10 1008 keine Meldung
So, 25.10. 18:00 1008 - 0,8
So, 25.10. 17:50 1008 keine Meldung
So, 25.10. 17:40 1008 keine Meldung
So, 25.10. 17:30 1008 - 1,1
So, 25.10. 17:00 1008 - 1,1
So, 25.10. 15:00 1008 - 1,8
Ortszeit Schneehöhe (cm)
So, 25.10. 13:00 0
So, 25.10. 7:00 0
So, 25.10. 2:00 0
Sa, 24.10. 20:00 0
Sa, 24.10. 14:00 0
Sa, 24.10. 8:00 0
Sa, 24.10. 2:00 0
Fr, 23.10. 20:00 0
Ortszeit Schneehöhe (cm)
So, 25.10. 18:30 0
So, 25.10. 18:20 0
So, 25.10. 18:10 0
So, 25.10. 18:00 0
So, 25.10. 17:50 0
So, 25.10. 17:40 0
So, 25.10. 17:30 0
So, 25.10. 17:00 0
So, 25.10. 15:00 -
Link zu dieser Seite / Seite empfehlen

Das Wetter in ...